Ken Boothe Sr — WDG3360 — position and weather

sailwx.info

Track history (hours):
 
Tides and Currents Weather Stations Pressure Air Temp Water Temp Dewpoint Dewpoint Depression Visibility Wind Speed Wind Dir Waves Ship Positions

Ken Boothe Sr

Owner: AMERICAN STEAMSHIP COMPANY, WILLIAMSVILLE, NY. More information available from US FCC via Universal Licensing System and Coast Guard Vessel Documentation Center.

Last reported at 2015-Aug-23 15:34 UTC. Time now 2015-Aug-29 20:57 UTC.
Position N 46°04' W 084°00'.

Length 30 m; draft 6 m.

Type: Towing. MMSI: 367525230.

Date/timePositionNaut miles runAvg speedWind from/ knotsBaromVisibWave heightAir tempDewpointWater temp
2015-Aug-23 15:34N 46°04' W 084°00'1010.2
2015-Aug-23 14:33N 45°55' W 083°53'1211.8
2015-Aug-23 13:33N 45°45' W 083°44'1211.6
2015-Aug-23 12:33N 45°36' W 083°35'1211.6
2015-Aug-23 11:33N 45°26' W 083°25'1111.2
2015-Aug-23 10:32N 45°17' W 083°16'  
2015-Aug-19 14:33N 45°34' W 083°59'1110.8
2015-Aug-19 13:34N 45°40' W 084°12'1111.1
2015-Aug-19 12:33N 45°42' W 084°28'1313.1
2015-Aug-19 11:33N 45°49' W 084°43'1211.6
2015-Aug-19 10:33N 45°50' W 084°60'8 8.1
2015-Aug-19 09:33N 45°45' W 085°09'1211.8
2015-Aug-19 08:33N 45°36' W 085°20'1211.9
2015-Aug-19 07:33N 45°26' W 085°30'1212.1
2015-Aug-19 06:33N 45°17' W 085°40'1211.6
2015-Aug-19 05:33N 45°07' W 085°50'1211.7
2015-Aug-19 04:33N 44°59' W 086°01'1312.4
2015-Aug-19 03:31N 44°52' W 086°17'5 0.1
2015-Aug-17 14:33N 44°56' W 086°19'8 8.4
2015-Aug-17 13:33N 45°04' W 086°17'10 9.5
2015-Aug-17 12:34N 45°14' W 086°14'1010.3
2015-Aug-17 11:33N 45°24' W 086°11'1211.7
2015-Aug-17 10:33N 45°35' W 086°08'1212.2
2015-Aug-17 09:33N 45°46' W 086°01'1111.4
2015-Aug-17 08:33N 45°56' W 085°53'2 1.7
2015-Aug-17 07:33N 45°58' W 085°52'0 0.0
2015-Aug-17 06:33N 45°58' W 085°52'0 0.0
2015-Aug-17 05:33N 45°58' W 085°52'0 0.0
2015-Aug-17 04:33N 45°58' W 085°52'0 0.0
2015-Aug-17 03:33N 45°58' W 085°52'0 0.0
2015-Aug-17 02:33N 45°58' W 085°52'0 0.0
2015-Aug-17 01:33N 45°58' W 085°52'0 0.0
2015-Aug-17 00:33N 45°58' W 085°52'0 0.0
2015-Aug-16 23:33N 45°58' W 085°52'0 0.0
2015-Aug-16 22:33N 45°58' W 085°52'0 0.0
2015-Aug-16 21:34N 45°58' W 085°52'0 0.0
2015-Aug-16 20:33N 45°58' W 085°52'0 0.0
2015-Aug-16 19:33N 45°58' W 085°52'0 0.0
2015-Aug-16 18:33N 45°58' W 085°52'0 0.0
2015-Aug-16 17:33N 45°58' W 085°52'1 0.6
2015-Aug-16 16:33N 45°57' W 085°53'7 7.4
2015-Aug-16 15:33N 45°50' W 085°55'1111.0
2015-Aug-16 14:33N 45°40' W 086°01'1212.0
2015-Aug-16 13:34N 45°29' W 086°08'1212.3
2015-Aug-16 12:33N 45°18' W 086°16'1312.6
2015-Aug-16 11:30N 45°06' W 086°25'1212.1
2015-Aug-16 10:33N 44°56' W 086°32'1913.1
2015-Aug-16 09:07N 44°39' W 086°45'25 0.5
2015-Aug-14 05:20N 44°60' W 086°23'911.0
2015-Aug-14 04:33N 45°08' W 086°20'1514.6
2015-Aug-14 03:33N 45°22' W 086°14'1312.7
2015-Aug-14 02:33N 45°34' W 086°09'1010.4
2015-Aug-14 01:33N 45°43' W 086°01'1211.6
2015-Aug-14 00:33N 45°49' W 085°46'1110.9
2015-Aug-13 23:33N 45°54' W 085°32'1111.4
2015-Aug-13 22:33N 45°53' W 085°16'1212.4
2015-Aug-13 21:33N 45°51' W 084°59'1111.1
2015-Aug-13 20:33N 45°49' W 084°43'1110.8
2015-Aug-13 19:33N 45°43' W 084°30'1211.6
2015-Aug-13 18:33N 45°41' W 084°14'1312.5
2015-Aug-13 17:33N 45°35' W 083°58'  
Track history (hours):
 
Tides and Currents Weather Stations Pressure Air Temp Water Temp Dewpoint Dewpoint Depression Visibility Wind Speed Wind Dir Waves Ship Positions

Ken Boothe Sr

Owner: AMERICAN STEAMSHIP COMPANY, WILLIAMSVILLE, NY. More information available from US FCC via Universal Licensing System and Coast Guard Vessel Documentation Center.

Last reported at 2015-Aug-23 15:34 UTC. Time now 2015-Aug-29 20:57 UTC.
Position N 46°04' W 084°00'.

Length 30 m; draft 6 m.

Type: Towing. MMSI: 367525230.

Date/timePositionNaut miles runAvg speedWind from/ knotsBaromVisibWave heightAir tempDewpointWater temp
2015-Aug-23 15:34N 46°04' W 084°00'1010.2
2015-Aug-23 14:33N 45°55' W 083°53'1211.8
2015-Aug-23 13:33N 45°45' W 083°44'1211.6
2015-Aug-23 12:33N 45°36' W 083°35'1211.6
2015-Aug-23 11:33N 45°26' W 083°25'1111.2
2015-Aug-23 10:32N 45°17' W 083°16'  
2015-Aug-19 14:33N 45°34' W 083°59'1110.8
2015-Aug-19 13:34N 45°40' W 084°12'1111.1
2015-Aug-19 12:33N 45°42' W 084°28'1313.1
2015-Aug-19 11:33N 45°49' W 084°43'1211.6
2015-Aug-19 10:33N 45°50' W 084°60'8 8.1
2015-Aug-19 09:33N 45°45' W 085°09'1211.8
2015-Aug-19 08:33N 45°36' W 085°20'1211.9
2015-Aug-19 07:33N 45°26' W 085°30'1212.1
2015-Aug-19 06:33N 45°17' W 085°40'1211.6
2015-Aug-19 05:33N 45°07' W 085°50'1211.7
2015-Aug-19 04:33N 44°59' W 086°01'1312.4
2015-Aug-19 03:31N 44°52' W 086°17'5 0.1
2015-Aug-17 14:33N 44°56' W 086°19'8 8.4
2015-Aug-17 13:33N 45°04' W 086°17'10 9.5
2015-Aug-17 12:34N 45°14' W 086°14'1010.3
2015-Aug-17 11:33N 45°24' W 086°11'1211.7
2015-Aug-17 10:33N 45°35' W 086°08'1212.2
2015-Aug-17 09:33N 45°46' W 086°01'1111.4
2015-Aug-17 08:33N 45°56' W 085°53'2 1.7
2015-Aug-17 07:33N 45°58' W 085°52'0 0.0
2015-Aug-17 06:33N 45°58' W 085°52'0 0.0
2015-Aug-17 05:33N 45°58' W 085°52'0 0.0
2015-Aug-17 04:33N 45°58' W 085°52'0 0.0
2015-Aug-17 03:33N 45°58' W 085°52'0 0.0
2015-Aug-17 02:33N 45°58' W 085°52'0 0.0
2015-Aug-17 01:33N 45°58' W 085°52'0 0.0
2015-Aug-17 00:33N 45°58' W 085°52'0 0.0
2015-Aug-16 23:33N 45°58' W 085°52'0 0.0
2015-Aug-16 22:33N 45°58' W 085°52'0 0.0
2015-Aug-16 21:34N 45°58' W 085°52'0 0.0
2015-Aug-16 20:33N 45°58' W 085°52'0 0.0
2015-Aug-16 19:33N 45°58' W 085°52'0 0.0
2015-Aug-16 18:33N 45°58' W 085°52'0 0.0
2015-Aug-16 17:33N 45°58' W 085°52'1 0.6
2015-Aug-16 16:33N 45°57' W 085°53'7 7.4
2015-Aug-16 15:33N 45°50' W 085°55'1111.0
2015-Aug-16 14:33N 45°40' W 086°01'1212.0
2015-Aug-16 13:34N 45°29' W 086°08'1212.3
2015-Aug-16 12:33N 45°18' W 086°16'1312.6
2015-Aug-16 11:30N 45°06' W 086°25'1212.1
2015-Aug-16 10:33N 44°56' W 086°32'1913.1
2015-Aug-16 09:07N 44°39' W 086°45'25 0.5
2015-Aug-14 05:20N 44°60' W 086°23'911.0
2015-Aug-14 04:33N 45°08' W 086°20'1514.6
2015-Aug-14 03:33N 45°22' W 086°14'1312.7
2015-Aug-14 02:33N 45°34' W 086°09'1010.4
2015-Aug-14 01:33N 45°43' W 086°01'1211.6
2015-Aug-14 00:33N 45°49' W 085°46'1110.9
2015-Aug-13 23:33N 45°54' W 085°32'1111.4
2015-Aug-13 22:33N 45°53' W 085°16'1212.4
2015-Aug-13 21:33N 45°51' W 084°59'1111.1
2015-Aug-13 20:33N 45°49' W 084°43'1110.8
2015-Aug-13 19:33N 45°43' W 084°30'1211.6
2015-Aug-13 18:33N 45°41' W 084°14'1312.5
2015-Aug-13 17:33N 45°35' W 083°58'  

Dump ship's entire track history